createdAt,value
2022-09-21T19:08:38.777Z,3.10
2022-09-21T19:11:13.283Z,3.42
2022-09-21T19:13:47.167Z,3.47
2022-09-21T19:16:24.331Z,3.20
2022-09-21T19:19:04.472Z,3.50
2022-09-21T19:21:39.817Z,3.60
2022-09-21T19:24:17.838Z,2.50
2022-09-21T19:26:51.032Z,2.78
2022-09-21T19:29:30.855Z,2.72
2022-09-21T19:31:58.450Z,2.50
2022-09-21T19:34:25.574Z,2.42
2022-09-21T19:36:52.441Z,2.83
2022-09-21T19:39:21.637Z,2.90
2022-09-21T19:41:59.278Z,2.78
2022-09-21T19:44:48.447Z,3.63
2022-09-21T19:47:25.270Z,3.50
2022-09-21T19:49:54.059Z,3.30
2022-09-21T19:52:28.194Z,3.60
2022-09-21T19:54:57.909Z,3.30
2022-09-21T19:59:51.836Z,3.10
2022-09-21T20:02:23.272Z,3.55
2022-09-21T20:04:55.001Z,4.13
2022-09-21T20:07:31.486Z,3.83
2022-09-21T20:10:11.893Z,3.55
2022-09-21T20:12:45.976Z,3.83
2022-09-21T20:15:17.103Z,4.95
2022-09-21T20:17:49.834Z,6.38
2022-09-21T20:20:21.188Z,5.28
2022-09-21T20:22:48.845Z,5.22
2022-09-21T20:25:21.439Z,4.93
2022-09-21T20:27:50.342Z,5.80
2022-09-21T20:30:20.447Z,5.07
2022-09-21T20:32:51.809Z,6.03
2022-09-21T20:35:21.056Z,6.50
2022-09-21T20:37:48.086Z,7.00
2022-09-21T20:40:16.599Z,6.90
2022-09-21T20:42:44.335Z,6.28
2022-09-21T20:45:12.340Z,6.82
2022-09-21T20:47:39.724Z,5.78
2022-09-21T20:50:08.602Z,4.88
2022-09-21T20:52:35.346Z,5.10
2022-09-21T20:55:02.147Z,5.22
2022-09-21T20:57:30.810Z,6.30
2022-09-21T20:59:57.501Z,5.00
2022-09-21T21:02:24.194Z,4.93
2022-09-21T21:04:51.541Z,4.80
2022-09-21T21:07:18.265Z,5.85
2022-09-21T21:09:44.974Z,4.82
2022-09-21T21:12:12.316Z,5.25
2022-09-21T21:14:40.363Z,4.88
2022-09-21T21:17:07.186Z,4.93
2022-09-21T21:19:34.658Z,5.20
2022-09-21T21:22:01.384Z,4.60
2022-09-21T21:24:28.172Z,5.20
2022-09-21T21:27:02.101Z,5.55
2022-09-21T21:29:29.930Z,4.90
2022-09-21T21:31:58.965Z,5.15
2022-09-21T21:34:26.018Z,5.75
2022-09-21T21:36:53.118Z,4.82
2022-09-21T21:39:20.517Z,5.20
2022-09-21T21:41:47.443Z,4.80
2022-09-21T21:44:14.213Z,5.45
2022-09-21T21:46:41.771Z,5.00
2022-09-21T21:49:09.870Z,4.57
2022-09-21T21:51:36.582Z,6.20
2022-09-21T21:54:03.911Z,4.70
2022-09-21T21:56:30.740Z,5.90
2022-09-21T21:58:57.471Z,4.35
2022-09-21T22:01:26.687Z,5.13
2022-09-21T22:03:54.791Z,4.57
2022-09-21T22:06:23.647Z,4.50
2022-09-21T22:08:51.725Z,4.72
2022-09-21T22:11:18.972Z,4.32
2022-09-21T22:13:46.166Z,4.97
2022-09-21T22:16:15.556Z,5.25
2022-09-21T22:18:43.032Z,5.40
2022-09-21T22:21:12.209Z,5.20
2022-09-21T22:23:41.118Z,5.40
2022-09-21T22:26:10.184Z,4.13
2022-09-21T22:31:09.324Z,3.97
2022-09-21T22:33:36.446Z,5.18
2022-09-21T22:36:06.839Z,3.97
2022-09-21T22:38:38.082Z,4.95
2022-09-21T22:41:10.369Z,4.43
2022-09-21T22:43:37.934Z,4.65
2022-09-21T22:46:05.514Z,4.65
2022-09-21T22:48:32.435Z,4.45
2022-09-21T22:50:59.868Z,4.47
2022-09-21T22:53:26.771Z,4.15
2022-09-21T22:56:03.106Z,4.20
2022-09-21T22:58:33.061Z,4.60
2022-09-21T23:01:04.820Z,4.32
2022-09-21T23:03:32.547Z,4.13
2022-09-21T23:06:00.116Z,4.28
2022-09-21T23:08:27.843Z,4.30
2022-09-21T23:10:55.506Z,4.30
2022-09-21T23:13:22.371Z,4.00
2022-09-21T23:15:50.428Z,4.72
2022-09-21T23:18:17.874Z,5.03
2022-09-21T23:20:44.616Z,5.70
2022-09-21T23:23:11.343Z,4.85
2022-09-21T23:25:38.676Z,4.75
2022-09-21T23:28:05.377Z,5.03
2022-09-21T23:30:32.079Z,4.47
2022-09-21T23:33:00.726Z,5.60
2022-09-21T23:35:27.437Z,5.70
2022-09-21T23:37:54.140Z,5.28
2022-09-21T23:40:21.551Z,4.72
2022-09-21T23:42:48.306Z,4.82
2022-09-21T23:45:15.104Z,5.28
2022-09-21T23:47:42.423Z,5.00
2022-09-21T23:50:10.795Z,5.05
2022-09-21T23:52:37.550Z,4.78
2022-09-21T23:55:05.460Z,4.63
2022-09-21T23:57:32.199Z,4.57
2022-09-21T23:59:58.917Z,4.65
